createdAt,value
2019-02-14T00:00:34.146Z,85.74
2019-02-14T00:03:05.747Z,85.67
2019-02-14T00:05:38.019Z,85.69
2019-02-14T00:08:08.743Z,85.49
2019-02-14T00:10:39.841Z,85.44
2019-02-14T00:13:11.176Z,85.48
2019-02-14T00:15:41.937Z,85.32
2019-02-14T00:18:13.536Z,85.55
2019-02-14T00:20:45.151Z,85.44
2019-02-14T00:23:16.871Z,85.46
2019-02-14T00:25:47.908Z,85.49
2019-02-14T00:28:21.800Z,85.45
2019-02-14T00:30:52.802Z,85.69
2019-02-14T00:33:24.885Z,85.56
2019-02-14T00:35:56.105Z,85.58
2019-02-14T00:38:27.489Z,85.66
2019-02-14T00:40:59.444Z,85.69
2019-02-14T00:43:31.353Z,85.65
2019-02-14T00:46:02.538Z,85.91
2019-02-14T00:48:33.680Z,85.85
2019-02-14T00:51:04.894Z,85.81
2019-02-14T00:53:36.070Z,85.86
2019-02-14T00:56:07.222Z,85.74
2019-02-14T00:58:40.037Z,85.56
2019-02-14T01:01:12.106Z,85.35
2019-02-14T01:03:43.299Z,85.08
2019-02-14T01:06:14.956Z,85.19
2019-02-14T01:08:46.592Z,85.18
2019-02-14T01:11:18.273Z,85.43
2019-02-14T01:13:50.031Z,85.53
2019-02-14T01:16:21.986Z,85.43
2019-02-14T01:18:55.785Z,85.48
2019-02-14T01:21:27.349Z,85.73
2019-02-14T01:23:58.990Z,85.89
2019-02-14T01:26:30.225Z,86.25
2019-02-14T01:29:01.347Z,86.39
2019-02-14T01:31:33.669Z,86.68
2019-02-14T01:34:05.043Z,86.63
2019-02-14T01:36:36.039Z,86.60
2019-02-14T01:39:07.917Z,86.87
2019-02-14T01:41:39.599Z,86.88
2019-02-14T01:44:10.681Z,86.81
2019-02-14T01:46:42.386Z,86.76
2019-02-14T01:49:14.708Z,86.56
2019-02-14T01:51:45.754Z,86.43
2019-02-14T01:54:17.459Z,86.60
2019-02-14T01:56:48.644Z,86.29
2019-02-14T01:59:20.186Z,86.43
2019-02-14T02:01:51.159Z,86.60
2019-02-14T02:04:22.721Z,86.43
2019-02-14T02:06:53.762Z,86.78
2019-02-14T02:09:25.195Z,86.85
2019-02-14T02:11:56.060Z,86.69
2019-02-14T02:14:28.409Z,86.78
2019-02-14T02:16:59.834Z,87.08
2019-02-14T02:19:32.844Z,87.37
2019-02-14T02:22:03.783Z,87.29
2019-02-14T02:24:34.426Z,87.51
2019-02-14T02:27:05.143Z,87.23
2019-02-14T02:29:36.466Z,87.10
2019-02-14T02:32:08.008Z,87.17
2019-02-14T02:34:39.232Z,87.24
2019-02-14T02:37:10.306Z,87.49
2019-02-14T02:39:41.468Z,87.53
2019-02-14T02:42:12.851Z,87.46
2019-02-14T02:44:44.068Z,87.52
2019-02-14T02:47:15.077Z,87.78
2019-02-14T02:49:46.298Z,87.59
2019-02-14T02:52:17.725Z,87.38
2019-02-14T02:54:48.720Z,87.69
2019-02-14T02:57:19.684Z,87.64
2019-02-14T02:59:50.910Z,87.72
2019-02-14T03:02:22.653Z,87.68
2019-02-14T03:04:53.605Z,87.52
2019-02-14T03:07:24.928Z,87.56
2019-02-14T03:09:55.858Z,87.50
2019-02-14T03:12:29.100Z,87.24
2019-02-14T03:15:00.663Z,87.14
2019-02-14T03:17:33.163Z,87.07
2019-02-14T03:20:05.163Z,86.98
2019-02-14T03:22:36.499Z,86.87
2019-02-14T03:25:10.396Z,86.80
2019-02-14T03:27:41.557Z,86.85
2019-02-14T03:30:15.685Z,86.64
2019-02-14T03:32:46.924Z,86.70
2019-02-14T03:35:18.660Z,86.84
2019-02-14T03:37:50.142Z,86.78
2019-02-14T03:40:21.563Z,86.57
2019-02-14T03:42:54.121Z,86.26
2019-02-14T03:45:26.379Z,86.33
2019-02-14T03:47:58.057Z,86.40
2019-02-14T03:50:29.139Z,86.64
2019-02-14T03:53:00.778Z,86.81
2019-02-14T03:55:32.672Z,86.86
2019-02-14T03:58:03.816Z,86.95
2019-02-14T04:00:35.151Z,86.76
2019-02-14T04:03:06.263Z,86.88
2019-02-14T04:05:38.640Z,86.94
2019-02-14T04:08:10.879Z,86.85
2019-02-14T04:10:42.092Z,86.96
2019-02-14T04:13:12.977Z,86.99
2019-02-14T04:15:44.208Z,87.07
2019-02-14T04:18:15.846Z,87.03
2019-02-14T04:20:48.726Z,87.11
2019-02-14T04:23:20.061Z,87.07
2019-02-14T04:25:50.556Z,87.08
2019-02-14T04:28:21.874Z,87.02
2019-02-14T04:30:53.200Z,87.02
2019-02-14T04:33:24.179Z,87.11
2019-02-14T04:35:55.069Z,87.06
2019-02-14T04:38:26.362Z,87.19
2019-02-14T04:40:57.376Z,87.09
2019-02-14T04:43:29.009Z,87.24
2019-02-14T04:46:00.389Z,87.24
2019-02-14T04:48:31.262Z,87.46
2019-02-14T04:51:02.383Z,87.66
2019-02-14T04:53:34.985Z,87.69
2019-02-14T04:56:05.920Z,87.71
2019-02-14T04:58:37.032Z,87.80
2019-02-14T05:01:09.355Z,87.68
2019-02-14T05:03:40.234Z,87.92
2019-02-14T05:06:14.398Z,87.89
2019-02-14T05:08:46.140Z,88.06
2019-02-14T05:11:17.504Z,88.33
2019-02-14T05:13:48.903Z,88.49
2019-02-14T05:16:19.810Z,88.60
2019-02-14T05:18:50.883Z,88.78
2019-02-14T05:21:23.784Z,88.72
2019-02-14T05:23:54.365Z,88.83
2019-02-14T05:26:25.549Z,88.80
2019-02-14T05:28:56.671Z,88.84
2019-02-14T05:31:28.193Z,89.01
2019-02-14T05:33:59.272Z,88.81
2019-02-14T05:36:30.222Z,88.71
2019-02-14T05:39:03.507Z,89.02
2019-02-14T05:41:35.394Z,89.17
2019-02-14T05:44:06.859Z,89.25
2019-02-14T05:46:39.062Z,89.28
2019-02-14T05:49:10.975Z,89.28
2019-02-14T05:51:43.038Z,89.37
2019-02-14T05:54:14.965Z,89.55
2019-02-14T05:56:46.866Z,89.46
2019-02-14T05:59:18.764Z,89.54
2019-02-14T06:01:49.321Z,89.39
2019-02-14T06:04:20.564Z,89.49
2019-02-14T06:06:51.192Z,89.51
2019-02-14T06:09:22.192Z,89.95
2019-02-14T06:11:52.851Z,89.93
2019-02-14T06:14:23.938Z,89.98
2019-02-14T06:16:54.805Z,89.80
2019-02-14T06:19:25.826Z,89.88
2019-02-14T06:21:57.308Z,89.81
2019-02-14T06:24:28.299Z,89.92
2019-02-14T06:26:59.910Z,90.04
2019-02-14T06:29:31.806Z,89.82
2019-02-14T06:32:02.770Z,89.61
2019-02-14T06:34:33.490Z,89.48
2019-02-14T06:37:09.618Z,89.64
2019-02-14T06:39:37.031Z,89.69
2019-02-14T06:42:08.225Z,89.63
2019-02-14T06:44:39.694Z,89.57
2019-02-14T06:47:10.966Z,89.58
2019-02-14T06:49:41.947Z,89.70
2019-02-14T06:52:13.682Z,89.69
2019-02-14T06:54:45.037Z,89.85
2019-02-14T06:57:18.520Z,90.09
2019-02-14T06:59:50.518Z,90.05
2019-02-14T07:02:22.073Z,89.92
2019-02-14T07:04:53.914Z,89.88
2019-02-14T07:07:26.155Z,89.72
2019-02-14T07:09:57.581Z,89.73
2019-02-14T07:12:29.128Z,90.31
2019-02-14T07:15:00.309Z,90.38
2019-02-14T07:17:31.336Z,90.33
2019-02-14T07:20:02.012Z,90.28
2019-02-14T07:22:32.745Z,90.62
2019-02-14T07:25:03.901Z,90.63
2019-02-14T07:27:34.613Z,90.54
2019-02-14T07:30:08.623Z,90.61
2019-02-14T07:32:39.319Z,90.73
2019-02-14T07:35:10.590Z,90.90
2019-02-14T07:37:41.806Z,90.91
2019-02-14T07:40:14.351Z,90.97
2019-02-14T07:42:44.945Z,91.08
2019-02-14T07:45:18.063Z,91.06
2019-02-14T07:47:49.341Z,91.13
2019-02-14T07:50:20.543Z,91.16
2019-02-14T07:52:51.303Z,90.84
2019-02-14T07:55:22.335Z,90.76
2019-02-14T07:57:53.495Z,90.85
2019-02-14T08:00:24.695Z,90.81
2019-02-14T08:02:56.422Z,90.42
2019-02-14T08:05:27.271Z,90.47
2019-02-14T08:07:58.141Z,90.18
2019-02-14T08:10:29.213Z,89.87
2019-02-14T08:13:00.334Z,89.98
2019-02-14T08:15:31.381Z,89.90
2019-02-14T08:18:02.584Z,89.71
2019-02-14T08:20:34.016Z,90.01
2019-02-14T08:23:05.239Z,89.94
2019-02-14T08:25:35.703Z,89.76
2019-02-14T08:28:06.863Z,89.70
2019-02-14T08:30:37.335Z,89.61
2019-02-14T08:33:08.937Z,89.52
2019-02-14T08:35:39.945Z,89.52
2019-02-14T08:38:11.816Z,89.59
2019-02-14T08:40:43.774Z,89.63
2019-02-14T08:43:15.496Z,89.53
2019-02-14T08:45:46.111Z,89.38
2019-02-14T08:48:17.111Z,89.31
2019-02-14T08:50:48.942Z,89.29
2019-02-14T08:53:21.127Z,89.28
2019-02-14T08:55:51.896Z,88.98
2019-02-14T08:58:22.695Z,88.87
2019-02-14T09:00:53.510Z,88.55
2019-02-14T09:03:24.223Z,88.54
2019-02-14T09:05:55.855Z,88.44
2019-02-14T09:08:37.268Z,88.34
2019-02-14T09:11:13.505Z,88.35
2019-02-14T09:13:44.066Z,88.00
2019-02-14T09:16:14.426Z,87.99
2019-02-14T09:18:46.029Z,88.01
2019-02-14T09:21:16.787Z,88.12
2019-02-14T09:23:48.141Z,88.09
2019-02-14T09:26:18.593Z,88.19
2019-02-14T09:29:01.046Z,88.19
2019-02-14T09:31:32.307Z,88.02
2019-02-14T09:34:09.043Z,87.81
2019-02-14T09:36:39.586Z,87.53
2019-02-14T09:39:10.002Z,87.02
2019-02-14T09:41:40.701Z,87.10
2019-02-14T09:44:11.171Z,87.11
2019-02-14T09:46:41.741Z,87.16
2019-02-14T09:49:12.175Z,87.17
2019-02-14T09:51:42.663Z,87.06
2019-02-14T09:54:14.434Z,87.01
2019-02-14T09:56:44.833Z,87.01
2019-02-14T09:59:15.308Z,86.92
2019-02-14T10:01:46.844Z,86.95
2019-02-14T10:04:19.826Z,86.71
2019-02-14T10:06:56.737Z,86.42
2019-02-14T10:09:29.932Z,86.59
2019-02-14T10:12:00.429Z,86.14
2019-02-14T10:14:31.618Z,85.84
2019-02-14T10:17:02.298Z,85.69
2019-02-14T10:19:34.344Z,85.54
2019-02-14T10:22:05.027Z,85.11
2019-02-14T10:24:35.483Z,84.77
2019-02-14T10:27:06.268Z,84.75
2019-02-14T10:29:36.886Z,84.45
2019-02-14T10:32:08.712Z,84.36
2019-02-14T10:34:39.706Z,84.15
2019-02-14T10:37:11.147Z,84.01
2019-02-14T10:39:42.389Z,83.29
2019-02-14T10:42:18.426Z,83.50
2019-02-14T10:44:49.067Z,83.41
2019-02-14T10:50:45.745Z,83.24
2019-02-14T10:53:19.328Z,83.32
2019-02-14T10:55:52.840Z,83.07
2019-02-14T10:58:24.649Z,83.27
2019-02-14T11:00:55.670Z,83.15
2019-02-14T11:03:25.974Z,83.20
2019-02-14T11:05:56.357Z,83.32
2019-02-14T11:08:31.793Z,83.13
2019-02-14T11:10:59.587Z,82.86
2019-02-14T11:13:31.372Z,82.81
2019-02-14T11:16:01.675Z,82.85
2019-02-14T11:18:31.955Z,82.65
2019-02-14T11:21:02.198Z,82.65
2019-02-14T11:23:32.522Z,82.55
2019-02-14T11:26:03.174Z,82.59
2019-02-14T11:28:33.440Z,82.09
2019-02-14T11:31:03.770Z,82.26
2019-02-14T11:33:34.345Z,82.18
2019-02-14T11:36:10.066Z,82.37
2019-02-14T11:38:41.148Z,82.83
2019-02-14T11:41:11.662Z,82.32
2019-02-14T11:43:42.017Z,82.77
2019-02-14T11:46:12.310Z,82.15
2019-02-14T11:48:43.612Z,82.27
2019-02-14T11:51:13.926Z,81.57
2019-02-14T11:53:44.176Z,81.49
2019-02-14T11:56:14.523Z,81.50
2019-02-14T11:58:44.795Z,82.20
2019-02-14T12:01:15.074Z,83.57
2019-02-14T12:03:45.542Z,84.72
2019-02-14T12:06:17.752Z,85.43
2019-02-14T12:08:59.417Z,85.73
2019-02-14T12:11:19.992Z,85.71
2019-02-14T12:13:50.336Z,85.42
2019-02-14T12:16:20.614Z,85.61
2019-02-14T12:18:50.883Z,85.21
2019-02-14T12:21:21.221Z,85.00
2019-02-14T12:23:51.513Z,84.71
2019-02-14T12:26:23.106Z,84.83
2019-02-14T12:28:53.390Z,83.84
2019-02-14T12:31:23.648Z,83.57
2019-02-14T12:33:53.967Z,83.38
2019-02-14T12:36:24.258Z,83.05
2019-02-14T12:38:54.734Z,82.69
2019-02-14T12:41:25.089Z,83.01
2019-02-14T12:43:55.377Z,82.77
2019-02-14T12:46:25.761Z,82.03
2019-02-14T12:48:56.059Z,80.85
2019-02-14T12:51:26.364Z,80.59
2019-02-14T12:53:56.704Z,80.49
2019-02-14T12:56:27.007Z,79.51
2019-02-14T12:58:57.347Z,79.04
2019-02-14T13:01:27.633Z,78.73
2019-02-14T13:03:57.971Z,78.79
2019-02-14T13:06:28.349Z,79.43
2019-02-14T13:08:58.993Z,78.62
2019-02-14T13:11:29.494Z,78.77
2019-02-14T13:14:02.356Z,78.98
2019-02-14T13:16:32.760Z,78.04
2019-02-14T13:19:03.032Z,78.62
2019-02-14T13:21:33.470Z,78.49
2019-02-14T13:24:03.788Z,77.95
2019-02-14T13:26:34.907Z,77.24
2019-02-14T13:29:05.652Z,76.44
2019-02-14T13:31:37.165Z,76.48
2019-02-14T13:34:08.449Z,75.82
2019-02-14T13:36:38.943Z,76.27
2019-02-14T13:39:09.458Z,76.07
2019-02-14T13:41:39.912Z,76.29
2019-02-14T13:44:10.209Z,76.08
2019-02-14T13:46:40.576Z,76.27
2019-02-14T13:49:10.860Z,75.93
2019-02-14T13:51:41.278Z,76.65
2019-02-14T13:54:11.562Z,75.82
2019-02-14T13:56:41.835Z,75.73
2019-02-14T13:59:12.172Z,75.89
2019-02-14T14:01:42.595Z,76.41
2019-02-14T14:04:13.165Z,76.02
2019-02-14T14:06:43.574Z,76.15
2019-02-14T14:09:13.922Z,76.19
2019-02-14T14:11:44.415Z,76.35
2019-02-14T14:14:14.829Z,76.08
2019-02-14T14:16:45.121Z,75.34
2019-02-14T14:19:15.542Z,75.64
2019-02-14T14:21:46.395Z,74.41
2019-02-14T14:24:16.846Z,74.94
2019-02-14T14:26:47.326Z,75.29
2019-02-14T14:29:17.598Z,75.57
2019-02-14T14:31:48.175Z,75.60
2019-02-14T14:34:19.587Z,75.60
2019-02-14T14:36:49.850Z,75.38
2019-02-14T14:39:20.207Z,75.02
2019-02-14T14:41:51.019Z,75.29
2019-02-14T14:44:24.456Z,74.79
2019-02-14T14:46:55.167Z,74.80
2019-02-14T14:49:25.530Z,74.65
2019-02-14T14:51:55.921Z,74.53
2019-02-14T14:54:26.247Z,74.65
2019-02-14T14:56:56.576Z,74.30
2019-02-14T14:59:26.949Z,74.55
2019-02-14T15:01:57.377Z,74.53
2019-02-14T15:04:27.922Z,74.67
2019-02-14T15:06:58.301Z,75.01
2019-02-14T15:09:28.769Z,75.37
2019-02-14T15:11:59.668Z,75.26
2019-02-14T15:14:31.254Z,75.67
2019-02-14T15:17:01.531Z,75.97
2019-02-14T15:19:32.883Z,75.58
2019-02-14T15:22:03.251Z,76.11
2019-02-14T15:24:33.538Z,75.18
2019-02-14T15:27:03.892Z,75.58
2019-02-14T15:29:34.235Z,75.77
2019-02-14T15:32:04.596Z,75.94
2019-02-14T15:34:34.954Z,76.22
2019-02-14T15:37:06.223Z,76.23
2019-02-14T15:39:39.026Z,76.36
2019-02-14T15:42:09.306Z,76.53
2019-02-14T15:44:39.679Z,76.89
2019-02-14T15:47:10.100Z,77.43
2019-02-14T15:49:40.404Z,77.70
2019-02-14T15:52:10.690Z,77.90
2019-02-14T15:54:41.019Z,78.02
2019-02-14T15:57:11.330Z,78.02
2019-02-14T15:59:43.474Z,78.20
2019-02-14T16:02:13.819Z,78.33
2019-02-14T16:04:45.974Z,78.55
2019-02-14T16:07:17.628Z,78.84
2019-02-14T16:09:48.805Z,79.05
2019-02-14T16:12:20.009Z,79.34
2019-02-14T16:14:51.353Z,79.39
2019-02-14T16:17:21.760Z,79.52
2019-02-14T16:19:52.059Z,79.70
2019-02-14T16:22:29.801Z,79.85
2019-02-14T16:24:54.396Z,79.78
2019-02-14T16:27:26.831Z,79.87
2019-02-14T16:29:57.106Z,79.75
2019-02-14T16:32:27.381Z,79.85
2019-02-14T16:34:57.660Z,80.01
2019-02-14T16:37:28.017Z,80.11
2019-02-14T16:39:58.569Z,80.01
2019-02-14T16:42:30.647Z,80.34
2019-02-14T16:45:00.982Z,80.14
2019-02-14T16:47:31.363Z,80.14
2019-02-14T16:50:01.703Z,80.35
2019-02-14T16:52:32.961Z,80.49
2019-02-14T16:55:03.236Z,80.36
2019-02-14T16:57:33.557Z,80.51
2019-02-14T17:00:04.492Z,80.56
2019-02-14T17:02:36.519Z,80.54
2019-02-14T17:05:06.824Z,80.73
2019-02-14T17:07:37.170Z,80.73
2019-02-14T17:10:10.160Z,80.94
2019-02-14T17:12:43.442Z,80.86
2019-02-14T17:15:13.930Z,80.88
2019-02-14T17:17:44.362Z,80.85
2019-02-14T17:20:14.726Z,80.81
2019-02-14T17:22:45.207Z,80.93
2019-02-14T17:25:17.264Z,80.96
2019-02-14T17:27:47.867Z,81.04
2019-02-14T17:30:18.142Z,81.28
2019-02-14T17:32:48.451Z,81.48
2019-02-14T17:35:18.875Z,81.50
2019-02-14T17:37:49.232Z,81.55
2019-02-14T17:40:19.556Z,81.52
2019-02-14T17:42:50.173Z,81.30
2019-02-14T17:45:20.533Z,81.36
2019-02-14T17:47:50.879Z,81.46
2019-02-14T17:50:21.222Z,81.74
2019-02-14T17:52:51.533Z,81.86
2019-02-14T17:55:22.052Z,82.09
2019-02-14T17:57:52.390Z,82.20
2019-02-14T18:00:23.026Z,82.26
2019-02-14T18:02:53.401Z,82.33
2019-02-14T18:05:23.761Z,82.62
2019-02-14T18:07:54.067Z,82.52
2019-02-14T18:10:26.265Z,82.39
2019-02-14T18:12:57.506Z,82.46
2019-02-14T18:15:28.585Z,82.47
2019-02-14T18:17:59.158Z,82.44
2019-02-14T18:20:29.515Z,82.52
2019-02-14T18:22:59.868Z,82.54
2019-02-14T18:25:30.180Z,82.40
2019-02-14T18:28:00.739Z,82.34
2019-02-14T18:30:31.048Z,82.43
2019-02-14T18:33:01.300Z,82.46
2019-02-14T18:35:31.656Z,82.47
2019-02-14T18:38:02.017Z,82.67
2019-02-14T18:40:32.389Z,82.53
2019-02-14T18:43:02.742Z,82.67
2019-02-14T18:45:33.078Z,82.65
2019-02-14T18:48:04.381Z,82.73
2019-02-14T18:50:34.640Z,82.96
2019-02-14T18:53:05.057Z,83.04
2019-02-14T18:55:35.363Z,83.11
2019-02-14T18:58:05.769Z,83.23
2019-02-14T19:00:36.324Z,83.27
2019-02-14T19:03:06.619Z,83.36
2019-02-14T19:05:36.882Z,83.43
2019-02-14T19:08:08.507Z,83.40
2019-02-14T19:10:39.388Z,83.55
2019-02-14T19:13:09.689Z,83.47
2019-02-14T19:15:40.162Z,83.58
2019-02-14T19:18:10.488Z,83.74
2019-02-14T19:20:40.760Z,83.82
2019-02-14T19:23:11.084Z,83.97
2019-02-14T19:25:41.378Z,84.06
2019-02-14T19:28:13.245Z,84.02
2019-02-14T19:30:43.593Z,83.90
2019-02-14T19:33:13.968Z,83.97
2019-02-14T19:35:44.297Z,84.00
2019-02-14T19:38:14.655Z,84.13
2019-02-14T19:40:45.003Z,84.15
2019-02-14T19:43:15.417Z,84.09
2019-02-14T19:45:45.729Z,84.12
2019-02-14T19:48:16.270Z,84.36
2019-02-14T19:50:46.788Z,84.51
2019-02-14T19:53:17.103Z,84.61
2019-02-14T19:55:47.424Z,84.74
2019-02-14T19:58:17.861Z,84.76
2019-02-14T20:00:48.213Z,84.86
2019-02-14T20:03:18.518Z,84.73
2019-02-14T20:05:48.969Z,84.91
2019-02-14T20:08:19.244Z,84.92
2019-02-14T20:10:49.599Z,84.90
2019-02-14T20:13:21.450Z,84.87
2019-02-14T20:15:52.683Z,84.94
2019-02-14T20:18:55.751Z,84.85
2019-02-14T20:21:44.143Z,84.83
2019-02-14T20:24:16.013Z,84.91
2019-02-14T20:26:47.268Z,84.77
2019-02-14T20:29:21.810Z,84.85
2019-02-14T20:31:52.888Z,84.91
2019-02-14T20:34:24.717Z,84.93
2019-02-14T20:36:57.336Z,85.00
2019-02-14T20:39:28.860Z,84.98
2019-02-14T20:42:00.277Z,85.02
2019-02-14T20:44:32.999Z,84.96
2019-02-14T20:47:05.319Z,84.92
2019-02-14T20:49:37.608Z,84.89
2019-02-14T20:52:09.189Z,84.73
2019-02-14T20:54:41.379Z,84.68
2019-02-14T20:57:13.319Z,84.58
2019-02-14T20:59:44.401Z,84.58
2019-02-14T21:02:15.779Z,84.60
2019-02-14T21:04:47.699Z,84.63
2019-02-14T21:07:19.578Z,84.60
2019-02-14T21:09:51.547Z,84.45
2019-02-14T21:12:22.466Z,84.43
2019-02-14T21:14:54.562Z,84.41
2019-02-14T21:17:25.543Z,84.64
2019-02-14T21:19:57.250Z,84.79
2019-02-14T21:22:29.189Z,84.85
2019-02-14T21:25:01.161Z,85.02
2019-02-14T21:27:35.091Z,84.83
2019-02-14T21:30:09.378Z,84.71
2019-02-14T21:32:41.337Z,84.74
2019-02-14T21:35:12.279Z,84.84
2019-02-14T21:37:43.535Z,84.70
2019-02-14T21:40:16.509Z,84.49
2019-02-14T21:42:47.478Z,84.13
2019-02-14T21:45:18.505Z,83.96
2019-02-14T21:47:51.016Z,84.12
2019-02-14T21:50:22.927Z,84.07
2019-02-14T21:52:54.807Z,84.06
2019-02-14T21:55:26.929Z,84.29
2019-02-14T21:57:59.116Z,84.42
2019-02-14T22:00:31.633Z,84.47
2019-02-14T22:03:02.480Z,84.45
2019-02-14T22:05:34.071Z,84.34
2019-02-14T22:08:07.290Z,84.13
2019-02-14T22:10:38.975Z,83.97
2019-02-14T22:13:10.236Z,83.84
2019-02-14T22:15:42.189Z,84.08
2019-02-14T22:18:13.231Z,84.24
2019-02-14T22:20:44.401Z,84.29
2019-02-14T22:23:15.840Z,84.30
2019-02-14T22:25:46.906Z,84.21
2019-02-14T22:28:18.042Z,84.04
2019-02-14T22:30:51.047Z,83.83
2019-02-14T22:33:22.443Z,83.43
2019-02-14T22:35:54.188Z,83.18
2019-02-14T22:38:25.508Z,83.24
2019-02-14T22:40:57.442Z,83.41
2019-02-14T22:43:28.036Z,83.02
2019-02-14T22:45:59.286Z,82.92
2019-02-14T22:48:30.862Z,83.04
2019-02-14T22:51:02.101Z,82.82
2019-02-14T22:53:34.739Z,82.67
2019-02-14T22:56:05.899Z,82.84
2019-02-14T22:58:36.860Z,82.95
2019-02-14T23:01:07.497Z,83.08
2019-02-14T23:03:38.778Z,82.82
2019-02-14T23:06:09.522Z,82.90
2019-02-14T23:08:41.346Z,82.73
2019-02-14T23:11:12.467Z,82.70
2019-02-14T23:13:44.060Z,82.53
2019-02-14T23:16:15.326Z,82.45
2019-02-14T23:18:46.928Z,82.43
2019-02-14T23:21:18.552Z,82.49
2019-02-14T23:23:49.713Z,82.61
2019-02-14T23:26:21.276Z,82.57
2019-02-14T23:28:53.359Z,82.71
2019-02-14T23:31:24.921Z,82.94
2019-02-14T23:33:55.910Z,82.96
2019-02-14T23:36:28.986Z,83.14
2019-02-14T23:39:00.522Z,83.05
2019-02-14T23:41:32.920Z,83.12
2019-02-14T23:44:04.426Z,83.11
2019-02-14T23:46:36.109Z,83.33
2019-02-14T23:49:07.745Z,83.33
2019-02-14T23:51:39.341Z,83.29
2019-02-14T23:54:10.944Z,83.21
2019-02-14T23:56:42.172Z,83.59
2019-02-14T23:59:13.402Z,83.93
